sensor_id;sensor_type;location;lat;lon;timestamp;P1;durP1;ratioP1;P2;durP2;ratioP2
65471;SDS011;52068;50.710;14.492;2022-11-20T00:01:44;34.80;;;19.65;;
65471;SDS011;52068;50.710;14.492;2022-11-20T00:04:10;37.65;;;19.00;;
65471;SDS011;52068;50.710;14.492;2022-11-20T00:06:36;35.45;;;18.90;;
65471;SDS011;52068;50.710;14.492;2022-11-20T00:09:01;38.78;;;19.95;;
65471;SDS011;52068;50.710;14.492;2022-11-20T00:11:27;34.13;;;18.67;;
65471;SDS011;52068;50.710;14.492;2022-11-20T00:13:54;36.50;;;20.25;;
65471;SDS011;52068;50.710;14.492;2022-11-20T00:16:23;37.92;;;19.48;;
65471;SDS011;52068;50.710;14.492;2022-11-20T00:18:49;34.58;;;18.80;;
65471;SDS011;52068;50.710;14.492;2022-11-20T00:23:41;30.90;;;18.85;;
65471;SDS011;52068;50.710;14.492;2022-11-20T00:26:08;32.13;;;18.10;;
65471;SDS011;52068;50.710;14.492;2022-11-20T00:28:35;32.42;;;19.23;;
65471;SDS011;52068;50.710;14.492;2022-11-20T00:31:05;35.67;;;20.58;;
65471;SDS011;52068;50.710;14.492;2022-11-20T00:33:32;34.22;;;19.23;;
65471;SDS011;52068;50.710;14.492;2022-11-20T00:36:02;37.35;;;19.73;;
65471;SDS011;52068;50.710;14.492;2022-11-20T00:38:32;35.97;;;20.10;;
65471;SDS011;52068;50.710;14.492;2022-11-20T00:40:58;35.53;;;19.50;;
65471;SDS011;52068;50.710;14.492;2022-11-20T00:43:25;33.42;;;19.23;;
65471;SDS011;52068;50.710;14.492;2022-11-20T00:45:56;35.38;;;19.70;;
65471;SDS011;52068;50.710;14.492;2022-11-20T00:48:22;37.03;;;21.02;;
65471;SDS011;52068;50.710;14.492;2022-11-20T00:50:48;37.67;;;20.80;;
65471;SDS011;52068;50.710;14.492;2022-11-20T00:53:13;36.05;;;20.33;;
65471;SDS011;52068;50.710;14.492;2022-11-20T00:55:39;37.63;;;20.80;;
65471;SDS011;52068;50.710;14.492;2022-11-20T00:58:04;38.80;;;22.08;;
65471;SDS011;52068;50.710;14.492;2022-11-20T01:00:30;39.95;;;23.13;;
65471;SDS011;52068;50.710;14.492;2022-11-20T01:02:55;44.47;;;23.95;;
65471;SDS011;52068;50.710;14.492;2022-11-20T01:05:21;57.03;;;27.85;;
65471;SDS011;52068;50.710;14.492;2022-11-20T01:07:46;44.67;;;24.45;;
65471;SDS011;52068;50.710;14.492;2022-11-20T01:10:12;42.63;;;22.58;;
65471;SDS011;52068;50.710;14.492;2022-11-20T01:12:37;36.75;;;21.65;;
65471;SDS011;52068;50.710;14.492;2022-11-20T01:15:02;42.45;;;22.15;;
65471;SDS011;52068;50.710;14.492;2022-11-20T01:17:28;41.50;;;21.40;;
65471;SDS011;52068;50.710;14.492;2022-11-20T01:19:53;40.13;;;21.55;;
65471;SDS011;52068;50.710;14.492;2022-11-20T01:22:19;48.97;;;23.60;;
65471;SDS011;52068;50.710;14.492;2022-11-20T01:24:44;52.55;;;22.77;;
65471;SDS011;52068;50.710;14.492;2022-11-20T01:27:09;42.90;;;23.27;;
65471;SDS011;52068;50.710;14.492;2022-11-20T01:29:35;44.58;;;23.35;;
65471;SDS011;52068;50.710;14.492;2022-11-20T01:32:00;43.42;;;24.52;;
65471;SDS011;52068;50.710;14.492;2022-11-20T01:34:26;40.83;;;21.55;;
65471;SDS011;52068;50.710;14.492;2022-11-20T01:36:51;40.00;;;22.83;;
65471;SDS011;52068;50.710;14.492;2022-11-20T01:39:19;43.85;;;22.80;;
65471;SDS011;52068;50.710;14.492;2022-11-20T01:41:47;40.38;;;22.05;;
65471;SDS011;52068;50.710;14.492;2022-11-20T01:47:40;39.35;;;22.25;;
65471;SDS011;52068;50.710;14.492;2022-11-20T01:50:15;44.50;;;23.33;;
65471;SDS011;52068;50.710;14.492;2022-11-20T01:52:48;42.42;;;22.95;;
65471;SDS011;52068;50.710;14.492;2022-11-20T01:55:17;39.13;;;21.90;;
65471;SDS011;52068;50.710;14.492;2022-11-20T01:57:46;44.60;;;24.05;;
65471;SDS011;52068;50.710;14.492;2022-11-20T02:00:13;50.33;;;25.58;;
65471;SDS011;52068;50.710;14.492;2022-11-20T02:02:42;55.05;;;27.02;;
65471;SDS011;52068;50.710;14.492;2022-11-20T02:08:14;46.70;;;23.13;;
65471;SDS011;52068;50.710;14.492;2022-11-20T02:10:40;46.08;;;23.52;;
65471;SDS011;52068;50.710;14.492;2022-11-20T02:13:06;42.83;;;22.85;;
65471;SDS011;52068;50.710;14.492;2022-11-20T02:15:50;41.70;;;22.92;;
65471;SDS011;52068;50.710;14.492;2022-11-20T02:18:16;42.85;;;22.67;;
65471;SDS011;52068;50.710;14.492;2022-11-20T02:20:43;44.97;;;23.15;;
65471;SDS011;52068;50.710;14.492;2022-11-20T02:25:45;40.13;;;23.02;;
65471;SDS011;52068;50.710;14.492;2022-11-20T02:28:12;52.78;;;24.67;;
65471;SDS011;52068;50.710;14.492;2022-11-20T02:30:38;38.72;;;22.77;;
65471;SDS011;52068;50.710;14.492;2022-11-20T02:33:03;42.92;;;24.45;;
65471;SDS011;52068;50.710;14.492;2022-11-20T02:37:54;40.90;;;23.17;;
65471;SDS011;52068;50.710;14.492;2022-11-20T02:40:21;40.92;;;22.48;;
65471;SDS011;52068;50.710;14.492;2022-11-20T02:42:47;38.60;;;22.30;;
65471;SDS011;52068;50.710;14.492;2022-11-20T02:45:12;41.92;;;21.65;;
65471;SDS011;52068;50.710;14.492;2022-11-20T02:47:38;41.38;;;22.10;;
65471;SDS011;52068;50.710;14.492;2022-11-20T02:50:03;40.67;;;22.40;;
65471;SDS011;52068;50.710;14.492;2022-11-20T02:52:29;37.58;;;20.75;;
65471;SDS011;52068;50.710;14.492;2022-11-20T02:54:55;43.05;;;22.27;;
65471;SDS011;52068;50.710;14.492;2022-11-20T02:57:21;38.15;;;21.67;;
65471;SDS011;52068;50.710;14.492;2022-11-20T02:59:46;40.95;;;22.55;;
65471;SDS011;52068;50.710;14.492;2022-11-20T03:02:11;38.88;;;21.42;;
65471;SDS011;52068;50.710;14.492;2022-11-20T03:04:37;40.53;;;22.02;;
65471;SDS011;52068;50.710;14.492;2022-11-20T03:07:02;38.90;;;21.83;;
65471;SDS011;52068;50.710;14.492;2022-11-20T03:09:28;49.22;;;22.30;;
65471;SDS011;52068;50.710;14.492;2022-11-20T03:11:54;39.72;;;22.05;;
65471;SDS011;52068;50.710;14.492;2022-11-20T03:14:19;40.13;;;22.88;;
65471;SDS011;52068;50.710;14.492;2022-11-20T03:16:44;39.03;;;22.38;;
65471;SDS011;52068;50.710;14.492;2022-11-20T03:19:10;42.67;;;22.08;;
65471;SDS011;52068;50.710;14.492;2022-11-20T03:21:36;40.45;;;20.52;;
65471;SDS011;52068;50.710;14.492;2022-11-20T03:24:02;39.55;;;20.83;;
65471;SDS011;52068;50.710;14.492;2022-11-20T03:26:28;40.03;;;22.08;;
65471;SDS011;52068;50.710;14.492;2022-11-20T03:28:54;44.78;;;22.55;;
65471;SDS011;52068;50.710;14.492;2022-11-20T03:31:23;37.53;;;21.70;;
65471;SDS011;52068;50.710;14.492;2022-11-20T03:33:50;42.65;;;22.33;;
65471;SDS011;52068;50.710;14.492;2022-11-20T03:36:16;35.10;;;21.90;;
65471;SDS011;52068;50.710;14.492;2022-11-20T03:38:42;35.58;;;20.95;;
65471;SDS011;52068;50.710;14.492;2022-11-20T03:41:09;40.67;;;22.10;;
65471;SDS011;52068;50.710;14.492;2022-11-20T03:43:36;34.72;;;20.30;;
65471;SDS011;52068;50.710;14.492;2022-11-20T03:46:01;36.72;;;20.77;;
65471;SDS011;52068;50.710;14.492;2022-11-20T03:48:27;33.63;;;20.23;;
65471;SDS011;52068;50.710;14.492;2022-11-20T03:51:05;32.83;;;19.48;;
65471;SDS011;52068;50.710;14.492;2022-11-20T03:53:32;40.58;;;21.00;;
65471;SDS011;52068;50.710;14.492;2022-11-20T03:55:57;35.53;;;19.38;;
65471;SDS011;52068;50.710;14.492;2022-11-20T03:58:23;37.10;;;21.02;;
65471;SDS011;52068;50.710;14.492;2022-11-20T04:00:48;40.55;;;21.52;;
65471;SDS011;52068;50.710;14.492;2022-11-20T04:03:13;36.55;;;20.90;;
65471;SDS011;52068;50.710;14.492;2022-11-20T04:05:39;35.28;;;20.23;;
65471;SDS011;52068;50.710;14.492;2022-11-20T04:08:04;35.97;;;20.50;;
65471;SDS011;52068;50.710;14.492;2022-11-20T04:10:30;33.35;;;19.70;;
65471;SDS011;52068;50.710;14.492;2022-11-20T04:12:55;35.88;;;19.88;;
65471;SDS011;52068;50.710;14.492;2022-11-20T04:15:20;36.45;;;19.70;;
65471;SDS011;52068;50.710;14.492;2022-11-20T04:17:46;36.88;;;19.67;;
65471;SDS011;52068;50.710;14.492;2022-11-20T04:20:11;33.47;;;19.50;;
65471;SDS011;52068;50.710;14.492;2022-11-20T04:22:36;36.88;;;20.70;;
65471;SDS011;52068;50.710;14.492;2022-11-20T04:25:02;35.30;;;20.42;;
65471;SDS011;52068;50.710;14.492;2022-11-20T04:27:27;33.13;;;19.50;;
65471;SDS011;52068;50.710;14.492;2022-11-20T04:29:53;37.38;;;20.25;;
65471;SDS011;52068;50.710;14.492;2022-11-20T04:32:18;36.50;;;19.38;;
65471;SDS011;52068;50.710;14.492;2022-11-20T04:34:43;34.33;;;18.92;;
65471;SDS011;52068;50.710;14.492;2022-11-20T04:37:09;34.22;;;19.30;;
65471;SDS011;52068;50.710;14.492;2022-11-20T04:39:34;34.70;;;19.50;;
65471;SDS011;52068;50.710;14.492;2022-11-20T04:41:59;37.05;;;20.08;;
65471;SDS011;52068;50.710;14.492;2022-11-20T04:45:00;33.08;;;18.63;;
65471;SDS011;52068;50.710;14.492;2022-11-20T04:47:25;33.05;;;18.58;;
65471;SDS011;52068;50.710;14.492;2022-11-20T04:49:50;33.45;;;18.98;;
65471;SDS011;52068;50.710;14.492;2022-11-20T04:52:16;32.30;;;19.00;;
65471;SDS011;52068;50.710;14.492;2022-11-20T04:54:41;33.10;;;18.55;;
65471;SDS011;52068;50.710;14.492;2022-11-20T04:57:07;30.30;;;17.98;;
65471;SDS011;52068;50.710;14.492;2022-11-20T04:59:32;32.75;;;19.10;;
65471;SDS011;52068;50.710;14.492;2022-11-20T05:01:57;33.97;;;18.00;;
65471;SDS011;52068;50.710;14.492;2022-11-20T05:04:23;32.50;;;18.48;;
65471;SDS011;52068;50.710;14.492;2022-11-20T05:06:49;30.35;;;17.17;;
65471;SDS011;52068;50.710;14.492;2022-11-20T05:09:14;30.25;;;17.30;;
65471;SDS011;52068;50.710;14.492;2022-11-20T05:11:40;29.45;;;16.60;;
65471;SDS011;52068;50.710;14.492;2022-11-20T05:14:05;34.17;;;17.80;;
65471;SDS011;52068;50.710;14.492;2022-11-20T05:16:31;29.60;;;17.27;;
65471;SDS011;52068;50.710;14.492;2022-11-20T05:18:59;33.72;;;18.20;;
65471;SDS011;52068;50.710;14.492;2022-11-20T05:21:24;32.28;;;18.55;;
65471;SDS011;52068;50.710;14.492;2022-11-20T05:23:49;31.85;;;17.95;;
65471;SDS011;52068;50.710;14.492;2022-11-20T05:26:19;30.38;;;17.88;;
65471;SDS011;52068;50.710;14.492;2022-11-20T05:28:49;30.27;;;18.25;;
65471;SDS011;52068;50.710;14.492;2022-11-20T05:31:16;30.58;;;17.80;;
65471;SDS011;52068;50.710;14.492;2022-11-20T05:33:46;34.63;;;19.00;;
65471;SDS011;52068;50.710;14.492;2022-11-20T05:36:12;34.78;;;19.50;;
65471;SDS011;52068;50.710;14.492;2022-11-20T05:38:39;33.60;;;18.70;;
65471;SDS011;52068;50.710;14.492;2022-11-20T05:43:31;36.15;;;18.35;;
65471;SDS011;52068;50.710;14.492;2022-11-20T05:45:58;33.45;;;18.15;;
65471;SDS011;52068;50.710;14.492;2022-11-20T05:48:24;34.00;;;18.48;;
65471;SDS011;52068;50.710;14.492;2022-11-20T05:50:49;29.58;;;17.17;;
65471;SDS011;52068;50.710;14.492;2022-11-20T05:53:15;30.88;;;17.80;;
65471;SDS011;52068;50.710;14.492;2022-11-20T05:55:40;28.70;;;17.60;;
65471;SDS011;52068;50.710;14.492;2022-11-20T05:58:05;29.00;;;17.42;;
65471;SDS011;52068;50.710;14.492;2022-11-20T06:00:31;36.35;;;18.05;;
65471;SDS011;52068;50.710;14.492;2022-11-20T06:02:56;32.42;;;16.98;;
65471;SDS011;52068;50.710;14.492;2022-11-20T06:05:21;30.83;;;16.85;;
65471;SDS011;52068;50.710;14.492;2022-11-20T06:07:47;26.67;;;15.85;;
65471;SDS011;52068;50.710;14.492;2022-11-20T06:10:12;28.45;;;16.95;;
65471;SDS011;52068;50.710;14.492;2022-11-20T06:12:37;30.52;;;16.77;;
65471;SDS011;52068;50.710;14.492;2022-11-20T06:15:03;30.73;;;16.92;;
65471;SDS011;52068;50.710;14.492;2022-11-20T06:17:30;31.77;;;17.58;;
65471;SDS011;52068;50.710;14.492;2022-11-20T06:19:55;34.25;;;18.42;;
65471;SDS011;52068;50.710;14.492;2022-11-20T06:22:20;34.92;;;17.83;;
65471;SDS011;52068;50.710;14.492;2022-11-20T06:24:46;32.80;;;17.08;;
65471;SDS011;52068;50.710;14.492;2022-11-20T06:27:12;29.02;;;17.08;;
65471;SDS011;52068;50.710;14.492;2022-11-20T06:29:37;28.33;;;16.50;;
65471;SDS011;52068;50.710;14.492;2022-11-20T06:32:03;27.60;;;16.38;;
65471;SDS011;52068;50.710;14.492;2022-11-20T06:34:28;26.73;;;16.15;;
65471;SDS011;52068;50.710;14.492;2022-11-20T06:36:53;28.38;;;16.23;;
65471;SDS011;52068;50.710;14.492;2022-11-20T06:39:19;27.52;;;16.83;;
65471;SDS011;52068;50.710;14.492;2022-11-20T06:41:44;27.52;;;16.40;;
65471;SDS011;52068;50.710;14.492;2022-11-20T06:44:09;27.50;;;16.50;;
65471;SDS011;52068;50.710;14.492;2022-11-20T06:46:35;27.77;;;16.50;;
65471;SDS011;52068;50.710;14.492;2022-11-20T06:49:00;25.48;;;15.38;;
65471;SDS011;52068;50.710;14.492;2022-11-20T06:51:26;25.63;;;16.27;;
65471;SDS011;52068;50.710;14.492;2022-11-20T06:53:51;26.60;;;15.88;;
65471;SDS011;52068;50.710;14.492;2022-11-20T06:56:16;27.48;;;15.82;;
65471;SDS011;52068;50.710;14.492;2022-11-20T06:58:42;26.10;;;15.85;;
65471;SDS011;52068;50.710;14.492;2022-11-20T07:01:11;29.92;;;16.05;;
65471;SDS011;52068;50.710;14.492;2022-11-20T07:03:38;27.00;;;15.98;;
65471;SDS011;52068;50.710;14.492;2022-11-20T07:06:04;25.83;;;15.73;;
65471;SDS011;52068;50.710;14.492;2022-11-20T07:08:30;26.05;;;15.10;;
65471;SDS011;52068;50.710;14.492;2022-11-20T07:10:56;26.80;;;15.90;;
65471;SDS011;52068;50.710;14.492;2022-11-20T07:13:26;23.38;;;14.65;;
65471;SDS011;52068;50.710;14.492;2022-11-20T07:15:53;24.08;;;14.88;;
65471;SDS011;52068;50.710;14.492;2022-11-20T07:18:18;26.48;;;15.63;;
65471;SDS011;52068;50.710;14.492;2022-11-20T07:20:44;23.95;;;14.93;;
65471;SDS011;52068;50.710;14.492;2022-11-20T07:23:09;26.13;;;14.82;;
65471;SDS011;52068;50.710;14.492;2022-11-20T07:25:35;26.20;;;16.00;;
65471;SDS011;52068;50.710;14.492;2022-11-20T07:28:00;24.85;;;15.13;;
65471;SDS011;52068;50.710;14.492;2022-11-20T07:30:26;25.80;;;15.10;;
65471;SDS011;52068;50.710;14.492;2022-11-20T07:32:53;27.67;;;14.55;;
65471;SDS011;52068;50.710;14.492;2022-11-20T07:35:20;24.67;;;14.75;;
65471;SDS011;52068;50.710;14.492;2022-11-20T07:37:46;25.33;;;14.95;;
65471;SDS011;52068;50.710;14.492;2022-11-20T07:40:13;23.90;;;14.73;;
65471;SDS011;52068;50.710;14.492;2022-11-20T07:42:46;26.75;;;14.68;;
65471;SDS011;52068;50.710;14.492;2022-11-20T07:45:12;33.88;;;14.18;;
65471;SDS011;52068;50.710;14.492;2022-11-20T07:47:38;34.80;;;14.77;;
65471;SDS011;52068;50.710;14.492;2022-11-20T07:50:03;27.60;;;14.57;;
65471;SDS011;52068;50.710;14.492;2022-11-20T07:52:29;27.17;;;13.43;;
65471;SDS011;52068;50.710;14.492;2022-11-20T07:54:54;23.17;;;14.60;;
65471;SDS011;52068;50.710;14.492;2022-11-20T07:57:19;22.58;;;13.32;;
65471;SDS011;52068;50.710;14.492;2022-11-20T07:59:45;24.92;;;14.05;;
65471;SDS011;52068;50.710;14.492;2022-11-20T08:02:11;22.85;;;14.20;;
65471;SDS011;52068;50.710;14.492;2022-11-20T08:04:36;20.70;;;13.57;;
65471;SDS011;52068;50.710;14.492;2022-11-20T08:07:01;23.40;;;13.18;;
65471;SDS011;52068;50.710;14.492;2022-11-20T08:09:27;23.45;;;14.27;;
65471;SDS011;52068;50.710;14.492;2022-11-20T08:11:53;24.45;;;13.68;;
65471;SDS011;52068;50.710;14.492;2022-11-20T08:14:38;25.30;;;14.40;;
65471;SDS011;52068;50.710;14.492;2022-11-20T08:17:03;23.17;;;13.60;;
65471;SDS011;52068;50.710;14.492;2022-11-20T08:19:28;21.42;;;13.63;;
65471;SDS011;52068;50.710;14.492;2022-11-20T08:21:54;27.10;;;14.95;;
65471;SDS011;52068;50.710;14.492;2022-11-20T08:24:20;23.10;;;14.15;;
65471;SDS011;52068;50.710;14.492;2022-11-20T08:26:45;22.42;;;13.18;;
65471;SDS011;52068;50.710;14.492;2022-11-20T08:29:10;27.33;;;14.52;;
65471;SDS011;52068;50.710;14.492;2022-11-20T08:31:36;25.00;;;14.15;;
65471;SDS011;52068;50.710;14.492;2022-11-20T08:34:01;22.98;;;13.93;;
65471;SDS011;52068;50.710;14.492;2022-11-20T08:36:27;24.40;;;14.02;;
65471;SDS011;52068;50.710;14.492;2022-11-20T08:38:54;24.10;;;15.43;;
65471;SDS011;52068;50.710;14.492;2022-11-20T08:41:20;25.65;;;15.55;;
65471;SDS011;52068;50.710;14.492;2022-11-20T08:43:49;31.77;;;15.30;;
65471;SDS011;52068;50.710;14.492;2022-11-20T08:46:19;27.92;;;14.85;;
65471;SDS011;52068;50.710;14.492;2022-11-20T08:48:44;28.00;;;15.77;;
65471;SDS011;52068;50.710;14.492;2022-11-20T08:51:10;24.23;;;15.68;;
65471;SDS011;52068;50.710;14.492;2022-11-20T08:53:36;26.55;;;14.90;;
65471;SDS011;52068;50.710;14.492;2022-11-20T08:56:02;30.63;;;15.60;;
65471;SDS011;52068;50.710;14.492;2022-11-20T08:58:27;25.90;;;15.40;;
65471;SDS011;52068;50.710;14.492;2022-11-20T09:00:53;22.85;;;15.35;;
65471;SDS011;52068;50.710;14.492;2022-11-20T09:03:18;24.20;;;14.52;;
65471;SDS011;52068;50.710;14.492;2022-11-20T09:05:44;26.83;;;14.98;;
65471;SDS011;52068;50.710;14.492;2022-11-20T09:08:10;21.60;;;15.00;;
65471;SDS011;52068;50.710;14.492;2022-11-20T09:10:35;24.30;;;15.25;;
65471;SDS011;52068;50.710;14.492;2022-11-20T09:13:01;22.85;;;14.07;;
65471;SDS011;52068;50.710;14.492;2022-11-20T09:15:26;23.73;;;14.75;;
65471;SDS011;52068;50.710;14.492;2022-11-20T09:17:55;23.52;;;13.88;;
65471;SDS011;52068;50.710;14.492;2022-11-20T09:20:23;26.48;;;14.88;;
65471;SDS011;52068;50.710;14.492;2022-11-20T09:22:49;26.10;;;14.45;;
65471;SDS011;52068;50.710;14.492;2022-11-20T09:25:15;22.33;;;14.85;;
65471;SDS011;52068;50.710;14.492;2022-11-20T09:27:40;23.83;;;14.30;;
65471;SDS011;52068;50.710;14.492;2022-11-20T09:30:11;24.80;;;14.70;;
65471;SDS011;52068;50.710;14.492;2022-11-20T09:32:40;21.98;;;14.18;;
65471;SDS011;52068;50.710;14.492;2022-11-20T09:35:06;23.42;;;14.38;;
65471;SDS011;52068;50.710;14.492;2022-11-20T09:37:32;26.25;;;14.63;;
65471;SDS011;52068;50.710;14.492;2022-11-20T09:39:57;25.30;;;14.75;;
65471;SDS011;52068;50.710;14.492;2022-11-20T09:42:29;22.55;;;13.93;;
65471;SDS011;52068;50.710;14.492;2022-11-20T09:45:03;25.83;;;14.63;;
65471;SDS011;52068;50.710;14.492;2022-11-20T09:50:36;28.05;;;13.85;;
65471;SDS011;52068;50.710;14.492;2022-11-20T09:53:11;21.38;;;13.15;;
65471;SDS011;52068;50.710;14.492;2022-11-20T09:56:10;24.00;;;13.00;;
65471;SDS011;52068;50.710;14.492;2022-11-20T09:58:40;24.08;;;13.02;;
65471;SDS011;52068;50.710;14.492;2022-11-20T10:01:12;23.20;;;13.98;;
65471;SDS011;52068;50.710;14.492;2022-11-20T10:03:49;21.13;;;13.10;;
65471;SDS011;52068;50.710;14.492;2022-11-20T10:06:30;22.55;;;13.13;;
65471;SDS011;52068;50.710;14.492;2022-11-20T10:17:08;20.95;;;12.05;;
65471;SDS011;52068;50.710;14.492;2022-11-20T10:30:25;26.40;;;13.13;;
65471;SDS011;52068;50.710;14.492;2022-11-20T10:33:01;18.30;;;11.25;;
65471;SDS011;52068;50.710;14.492;2022-11-20T10:38:31;16.65;;;10.80;;
65471;SDS011;52068;50.710;14.492;2022-11-20T10:41:00;17.92;;;10.98;;
65471;SDS011;52068;50.710;14.492;2022-11-20T10:43:46;18.02;;;10.93;;
65471;SDS011;52068;50.710;14.492;2022-11-20T10:46:16;19.20;;;11.05;;
65471;SDS011;52068;50.710;14.492;2022-11-20T10:48:46;18.48;;;11.38;;
65471;SDS011;52068;50.710;14.492;2022-11-20T10:54:13;17.35;;;11.00;;
65471;SDS011;52068;50.710;14.492;2022-11-20T10:56:53;17.88;;;11.00;;
65471;SDS011;52068;50.710;14.492;2022-11-20T11:02:00;16.73;;;11.07;;
65471;SDS011;52068;50.710;14.492;2022-11-20T11:07:42;16.80;;;11.02;;
65471;SDS011;52068;50.710;14.492;2022-11-20T11:09:50;17.30;;;10.15;;
65471;SDS011;52068;50.710;14.492;2022-11-20T11:12:26;18.80;;;10.57;;
65471;SDS011;52068;50.710;14.492;2022-11-20T11:14:53;17.85;;;10.15;;
65471;SDS011;52068;50.710;14.492;2022-11-20T11:17:53;17.25;;;10.23;;
65471;SDS011;52068;50.710;14.492;2022-11-20T11:22:47;15.18;;;10.43;;
65471;SDS011;52068;50.710;14.492;2022-11-20T11:25:25;16.02;;;10.63;;
65471;SDS011;52068;50.710;14.492;2022-11-20T11:27:56;14.55;;;9.52;;
65471;SDS011;52068;50.710;14.492;2022-11-20T11:30:25;15.90;;;9.55;;
65471;SDS011;52068;50.710;14.492;2022-11-20T11:33:02;16.40;;;9.73;;
65471;SDS011;52068;50.710;14.492;2022-11-20T11:35:30;15.40;;;9.88;;
65471;SDS011;52068;50.710;14.492;2022-11-20T11:38:02;14.70;;;9.25;;
65471;SDS011;52068;50.710;14.492;2022-11-20T11:40:31;15.13;;;9.57;;
65471;SDS011;52068;50.710;14.492;2022-11-20T11:42:58;13.25;;;8.95;;
65471;SDS011;52068;50.710;14.492;2022-11-20T11:45:26;15.98;;;9.82;;
65471;SDS011;52068;50.710;14.492;2022-11-20T11:47:52;32.33;;;10.07;;
65471;SDS011;52068;50.710;14.492;2022-11-20T11:58:47;18.33;;;9.90;;
65471;SDS011;52068;50.710;14.492;2022-11-20T12:04:00;18.13;;;9.75;;
65471;SDS011;52068;50.710;14.492;2022-11-20T12:06:31;18.95;;;9.88;;
65471;SDS011;52068;50.710;14.492;2022-11-20T12:09:01;14.73;;;8.65;;
65471;SDS011;52068;50.710;14.492;2022-11-20T12:13:58;26.50;;;9.02;;
65471;SDS011;52068;50.710;14.492;2022-11-20T12:16:30;17.67;;;8.93;;
65471;SDS011;52068;50.710;14.492;2022-11-20T12:19:00;15.23;;;8.18;;
65471;SDS011;52068;50.710;14.492;2022-11-20T12:43:27;12.73;;;8.15;;
65471;SDS011;52068;50.710;14.492;2022-11-20T12:57:49;12.75;;;8.30;;
65471;SDS011;52068;50.710;14.492;2022-11-20T13:00:20;11.60;;;8.38;;
65471;SDS011;52068;50.710;14.492;2022-11-20T13:08:34;12.57;;;8.30;;
65471;SDS011;52068;50.710;14.492;2022-11-20T13:11:47;10.73;;;8.05;;
65471;SDS011;52068;50.710;14.492;2022-11-20T13:13:58;14.85;;;8.50;;
65471;SDS011;52068;50.710;14.492;2022-11-20T13:19:47;13.48;;;7.72;;
65471;SDS011;52068;50.710;14.492;2022-11-20T13:22:28;11.57;;;7.75;;
65471;SDS011;52068;50.710;14.492;2022-11-20T13:25:09;14.43;;;8.10;;
65471;SDS011;52068;50.710;14.492;2022-11-20T13:27:36;12.13;;;7.60;;
65471;SDS011;52068;50.710;14.492;2022-11-20T13:30:13;12.95;;;8.68;;
65471;SDS011;52068;50.710;14.492;2022-11-20T13:32:48;13.63;;;8.77;;
65471;SDS011;52068;50.710;14.492;2022-11-20T13:35:31;10.63;;;7.50;;
65471;SDS011;52068;50.710;14.492;2022-11-20T13:40:32;12.70;;;7.68;;
65471;SDS011;52068;50.710;14.492;2022-11-20T13:43:04;15.30;;;8.20;;
65471;SDS011;52068;50.710;14.492;2022-11-20T13:48:26;16.45;;;8.25;;
65471;SDS011;52068;50.710;14.492;2022-11-20T14:01:12;18.77;;;9.27;;
65471;SDS011;52068;50.710;14.492;2022-11-20T14:03:42;14.98;;;8.50;;
65471;SDS011;52068;50.710;14.492;2022-11-20T14:06:16;15.18;;;8.45;;
65471;SDS011;52068;50.710;14.492;2022-11-20T14:08:51;18.92;;;8.57;;
65471;SDS011;52068;50.710;14.492;2022-11-20T14:13:58;21.88;;;10.15;;
65471;SDS011;52068;50.710;14.492;2022-11-20T14:16:28;22.52;;;8.38;;
65471;SDS011;52068;50.710;14.492;2022-11-20T14:18:56;21.08;;;9.52;;
65471;SDS011;52068;50.710;14.492;2022-11-20T14:23:53;20.55;;;9.50;;
65471;SDS011;52068;50.710;14.492;2022-11-20T14:26:27;19.50;;;9.23;;
65471;SDS011;52068;50.710;14.492;2022-11-20T14:28:53;15.00;;;9.13;;
65471;SDS011;52068;50.710;14.492;2022-11-20T14:31:21;17.42;;;8.68;;
65471;SDS011;52068;50.710;14.492;2022-11-20T14:33:50;22.40;;;9.05;;
65471;SDS011;52068;50.710;14.492;2022-11-20T14:36:16;17.02;;;9.48;;
65471;SDS011;52068;50.710;14.492;2022-11-20T14:38:44;18.77;;;9.60;;
65471;SDS011;52068;50.710;14.492;2022-11-20T14:41:18;17.85;;;8.75;;
65471;SDS011;52068;50.710;14.492;2022-11-20T14:43:58;17.75;;;9.18;;
65471;SDS011;52068;50.710;14.492;2022-11-20T14:46:25;18.67;;;9.38;;
65471;SDS011;52068;50.710;14.492;2022-11-20T14:48:55;20.25;;;9.00;;
65471;SDS011;52068;50.710;14.492;2022-11-20T14:51:32;16.42;;;9.00;;
65471;SDS011;52068;50.710;14.492;2022-11-20T14:54:18;16.30;;;9.00;;
65471;SDS011;52068;50.710;14.492;2022-11-20T14:56:54;17.45;;;8.85;;
65471;SDS011;52068;50.710;14.492;2022-11-20T14:59:24;17.23;;;9.27;;
65471;SDS011;52068;50.710;14.492;2022-11-20T15:02:04;16.73;;;9.07;;
65471;SDS011;52068;50.710;14.492;2022-11-20T15:04:48;16.50;;;9.07;;
65471;SDS011;52068;50.710;14.492;2022-11-20T15:07:27;17.83;;;8.77;;
65471;SDS011;52068;50.710;14.492;2022-11-20T15:10:03;15.45;;;8.32;;
65471;SDS011;52068;50.710;14.492;2022-11-20T15:12:31;15.65;;;8.43;;
65471;SDS011;52068;50.710;14.492;2022-11-20T15:14:58;15.07;;;8.45;;
65471;SDS011;52068;50.710;14.492;2022-11-20T15:17:25;14.85;;;8.90;;
65471;SDS011;52068;50.710;14.492;2022-11-20T15:19:51;17.40;;;9.05;;
65471;SDS011;52068;50.710;14.492;2022-11-20T15:22:17;17.00;;;9.10;;
65471;SDS011;52068;50.710;14.492;2022-11-20T15:24:42;16.10;;;8.27;;
65471;SDS011;52068;50.710;14.492;2022-11-20T15:27:08;14.85;;;8.35;;
65471;SDS011;52068;50.710;14.492;2022-11-20T15:29:34;14.52;;;9.38;;
65471;SDS011;52068;50.710;14.492;2022-11-20T15:31:59;16.98;;;8.90;;
65471;SDS011;52068;50.710;14.492;2022-11-20T15:34:26;14.88;;;8.77;;
65471;SDS011;52068;50.710;14.492;2022-11-20T15:36:52;16.75;;;8.77;;
65471;SDS011;52068;50.710;14.492;2022-11-20T15:39:19;14.05;;;8.43;;
65471;SDS011;52068;50.710;14.492;2022-11-20T15:41:45;28.20;;;8.43;;
65471;SDS011;52068;50.710;14.492;2022-11-20T15:44:10;18.73;;;7.85;;
65471;SDS011;52068;50.710;14.492;2022-11-20T15:46:36;14.00;;;7.85;;
65471;SDS011;52068;50.710;14.492;2022-11-20T15:49:05;14.48;;;8.40;;
65471;SDS011;52068;50.710;14.492;2022-11-20T15:51:31;14.93;;;8.32;;
65471;SDS011;52068;50.710;14.492;2022-11-20T15:54:05;14.27;;;8.30;;
65471;SDS011;52068;50.710;14.492;2022-11-20T15:56:38;15.60;;;8.80;;
65471;SDS011;52068;50.710;14.492;2022-11-20T15:59:03;15.07;;;8.90;;
65471;SDS011;52068;50.710;14.492;2022-11-20T16:01:29;21.17;;;8.82;;
65471;SDS011;52068;50.710;14.492;2022-11-20T16:03:54;25.02;;;8.65;;
65471;SDS011;52068;50.710;14.492;2022-11-20T16:06:19;15.23;;;8.40;;
65471;SDS011;52068;50.710;14.492;2022-11-20T16:08:45;14.23;;;8.38;;
65471;SDS011;52068;50.710;14.492;2022-11-20T16:11:14;13.88;;;8.07;;
65471;SDS011;52068;50.710;14.492;2022-11-20T16:13:41;15.85;;;8.55;;
65471;SDS011;52068;50.710;14.492;2022-11-20T16:16:30;15.00;;;8.48;;
65471;SDS011;52068;50.710;14.492;2022-11-20T16:18:58;11.90;;;8.30;;
65471;SDS011;52068;50.710;14.492;2022-11-20T16:21:24;14.25;;;8.48;;
65471;SDS011;52068;50.710;14.492;2022-11-20T16:23:57;16.17;;;8.88;;
65471;SDS011;52068;50.710;14.492;2022-11-20T16:26:23;14.65;;;8.63;;